Disclaimer

Please do not use the information listed here in-flight or in-navigation, as they are not provided to us by the airports but are provided by volunteers, so they might be outdated.

Search


Regions


Airport information page

Radio informations:
Tower (TWR) - 118.3 MHz
Ground (GND) - 121.7 MHz
Approach (APP) - 124.3 MHz

Airport informations:
Latitude: 01° 58' 07.06" S
Longitude: 030° 08' 22.02" E
Elevation: 4859 feet - 1481 meters
Operating hours: N/A
Operating agency: Military-civil joint use airport
Timezone: UTC+2
Fuel: Jet A1, without icing nhibitor.

115/145 octane gasoline, leaded, MIL-L-5572F (PURPLE)

Runway information:
10/28 - 11483 x 148 feet< - >3500 x 45 meters

Recent METARs:
HRYR 160900Z 17004KT 080V230 9999 SCT022 21/18 Q1023 NOSIG
HRYR 160930Z 16004KT 120V210 9999 SCT023TCU 23/17 Q1023 NOSIG
HRYR 161000Z VRB06KT 9999 FEW022CB SCT023 24/18 Q1022 TEMPO TS

Airport on the map: